createdAt,value
2018-09-13T00:00:06.024Z,3.60
2018-09-13T00:01:06.010Z,3.60
2018-09-13T00:02:05.980Z,3.60
2018-09-13T00:03:05.971Z,3.80
2018-09-13T00:04:05.972Z,3.50
2018-09-13T00:05:05.945Z,3.60
2018-09-13T00:06:05.935Z,4.00
2018-09-13T00:07:05.938Z,4.00
2018-09-13T00:08:05.910Z,3.70
2018-09-13T00:09:05.911Z,3.70
2018-09-13T00:10:05.898Z,3.90
2018-09-13T00:11:05.884Z,3.50
2018-09-13T00:12:05.888Z,3.60
2018-09-13T00:13:05.899Z,3.90
2018-09-13T00:14:05.847Z,3.80
2018-09-13T00:15:05.835Z,3.50
2018-09-13T00:16:05.826Z,3.80
2018-09-13T00:17:05.847Z,4.20
2018-09-13T00:18:05.806Z,3.70
2018-09-13T00:19:05.823Z,3.70
2018-09-13T00:20:05.796Z,4.20
2018-09-13T00:21:05.771Z,4.60
2018-09-13T00:22:05.796Z,4.50
2018-09-13T00:23:05.745Z,4.90
2018-09-13T00:24:05.749Z,4.80
2018-09-13T00:25:05.733Z,4.50
2018-09-13T00:26:05.713Z,4.50
2018-09-13T00:27:05.725Z,4.00
2018-09-13T00:28:05.694Z,4.10
2018-09-13T00:29:05.680Z,3.90
2018-09-13T00:30:05.671Z,3.90
2018-09-13T00:31:05.674Z,3.90
2018-09-13T00:32:05.677Z,4.20
2018-09-13T00:33:05.653Z,3.90
2018-09-13T00:34:05.628Z,3.90
2018-09-13T00:35:05.612Z,3.90
2018-09-13T00:36:05.608Z,3.80
2018-09-13T00:37:05.608Z,3.90
2018-09-13T00:38:05.584Z,4.20
2018-09-13T00:39:05.593Z,3.80
2018-09-13T00:40:05.569Z,3.80
2018-09-13T00:41:05.549Z,4.20
2018-09-13T00:42:05.588Z,4.00
2018-09-13T00:43:05.585Z,4.30
2018-09-13T00:44:05.523Z,4.10
2018-09-13T00:45:05.523Z,4.00
2018-09-13T00:46:05.499Z,3.60
2018-09-13T00:47:05.504Z,3.70
2018-09-13T00:48:05.492Z,4.10
2018-09-13T00:49:05.462Z,3.90
2018-09-13T00:50:05.512Z,4.10
2018-09-13T00:51:05.446Z,4.20
2018-09-13T00:52:05.443Z,3.90
2018-09-13T00:53:05.420Z,4.10
2018-09-13T00:54:05.434Z,4.00
2018-09-13T00:55:05.411Z,4.10
2018-09-13T00:56:05.410Z,3.80
2018-09-13T00:57:05.390Z,3.70
2018-09-13T00:58:05.364Z,4.10
2018-09-13T00:59:05.356Z,3.80
2018-09-13T01:00:05.342Z,3.60
2018-09-13T01:01:05.328Z,4.00
2018-09-13T01:02:05.339Z,3.90
2018-09-13T01:03:05.310Z,4.00
2018-09-13T01:04:05.302Z,4.10
2018-09-13T01:05:05.285Z,3.70
2018-09-13T01:06:05.281Z,3.90
2018-09-13T01:07:05.291Z,4.20
2018-09-13T01:08:05.264Z,4.20
2018-09-13T01:09:05.246Z,4.20
2018-09-13T01:10:05.236Z,4.00
2018-09-13T01:11:05.218Z,4.20
2018-09-13T01:12:05.257Z,4.50
2018-09-13T01:13:05.194Z,4.20
2018-09-13T01:14:05.189Z,4.10
2018-09-13T01:15:05.175Z,4.50
2018-09-13T01:16:05.167Z,4.10
2018-09-13T01:17:05.204Z,4.40
2018-09-13T01:18:05.153Z,4.40
2018-09-13T01:19:05.135Z,4.40
2018-09-13T01:20:05.119Z,4.40
2018-09-13T01:21:05.132Z,4.60
2018-09-13T01:22:05.126Z,4.40
2018-09-13T01:23:05.089Z,4.40
2018-09-13T01:24:05.086Z,4.40
2018-09-13T01:25:05.079Z,4.90
2018-09-13T01:26:05.052Z,4.80
2018-09-13T01:27:05.064Z,4.80
2018-09-13T01:28:05.037Z,4.70
2018-09-13T01:29:05.018Z,5.00
2018-09-13T01:30:05.025Z,4.90
2018-09-13T01:31:05.002Z,5.00
2018-09-13T01:32:05.001Z,4.80
2018-09-13T01:33:04.975Z,5.10
2018-09-13T01:34:04.967Z,5.80
2018-09-13T01:35:04.958Z,5.50
2018-09-13T01:36:04.949Z,5.20
2018-09-13T01:37:04.963Z,5.80
2018-09-13T01:38:04.928Z,5.40
2018-09-13T01:39:04.909Z,5.50
2018-09-13T01:40:04.898Z,5.40
2018-09-13T01:41:04.886Z,5.30
2018-09-13T01:42:04.889Z,4.90
2018-09-13T01:43:04.886Z,4.90
2018-09-13T01:44:04.865Z,4.80
2018-09-13T01:45:04.874Z,5.10
2018-09-13T01:46:04.834Z,4.90
2018-09-13T01:47:04.820Z,4.80
2018-09-13T01:48:04.826Z,4.60
2018-09-13T01:49:04.796Z,5.00
2018-09-13T01:50:04.825Z,4.80
2018-09-13T01:51:04.781Z,4.70
2018-09-13T01:52:04.765Z,4.60
2018-09-13T01:53:04.774Z,4.60
2018-09-13T01:54:04.749Z,4.70
2018-09-13T01:55:04.763Z,4.80
2018-09-13T01:56:04.719Z,4.60
2018-09-13T01:57:04.709Z,4.60
2018-09-13T01:58:04.716Z,4.60
2018-09-13T01:59:04.689Z,4.30
2018-09-13T02:00:04.689Z,4.30
2018-09-13T02:01:04.675Z,4.20
2018-09-13T02:02:04.660Z,4.30
2018-09-13T02:03:04.675Z,4.40
2018-09-13T02:04:04.638Z,4.30
2018-09-13T02:05:04.623Z,4.70
2018-09-13T02:06:04.612Z,4.20
2018-09-13T02:07:04.620Z,4.40
2018-09-13T02:08:04.616Z,4.20
2018-09-13T02:09:04.577Z,4.00
2018-09-13T02:10:04.569Z,4.00
2018-09-13T02:11:04.557Z,4.70
2018-09-13T02:12:04.553Z,4.40
2018-09-13T02:13:04.555Z,4.00
2018-09-13T02:14:04.522Z,4.30
2018-09-13T02:15:04.526Z,4.70
2018-09-13T02:16:04.501Z,4.60
2018-09-13T02:17:04.490Z,5.10
2018-09-13T02:18:04.494Z,4.50
2018-09-13T02:19:04.468Z,4.50
2018-09-13T02:20:04.456Z,5.20
2018-09-13T02:21:04.464Z,6.00
2018-09-13T02:22:04.440Z,5.40
2018-09-13T02:23:04.442Z,5.60
2018-09-13T02:24:04.429Z,5.00
2018-09-13T02:25:04.405Z,5.60
2018-09-13T02:26:04.396Z,4.90
2018-09-13T02:27:04.383Z,4.60
2018-09-13T02:28:04.388Z,4.80
2018-09-13T02:29:04.355Z,5.10
2018-09-13T02:30:04.352Z,5.50
2018-09-13T02:31:04.344Z,5.40
2018-09-13T02:32:04.326Z,5.70
2018-09-13T02:33:04.342Z,5.50
2018-09-13T02:34:04.309Z,5.10
2018-09-13T02:35:04.291Z,6.00
2018-09-13T02:36:04.287Z,5.50
2018-09-13T02:37:04.271Z,5.90
2018-09-13T02:38:04.271Z,5.80
2018-09-13T02:39:04.245Z,5.90
2018-09-13T02:40:04.240Z,6.60
2018-09-13T02:41:04.233Z,5.90
2018-09-13T02:42:04.226Z,5.90
2018-09-13T02:43:04.237Z,6.30
2018-09-13T02:44:04.187Z,6.40
2018-09-13T02:45:04.181Z,7.30
2018-09-13T02:46:04.170Z,7.00
2018-09-13T02:47:04.160Z,6.60
2018-09-13T02:48:04.168Z,6.70
2018-09-13T02:49:04.157Z,5.70
2018-09-13T02:50:04.125Z,6.00
2018-09-13T02:51:04.112Z,5.40
2018-09-13T02:52:04.100Z,5.00
2018-09-13T02:53:04.105Z,4.50
2018-09-13T02:54:04.077Z,5.10
2018-09-13T02:55:04.072Z,4.80
2018-09-13T02:56:04.057Z,5.00
2018-09-13T02:57:04.047Z,4.80
2018-09-13T02:58:04.051Z,4.60
2018-09-13T02:59:04.047Z,4.70
2018-09-13T03:00:04.009Z,4.70
2018-09-13T03:01:03.998Z,4.20
2018-09-13T03:02:03.990Z,4.30
2018-09-13T03:03:03.994Z,4.80
2018-09-13T03:04:04.007Z,4.30
2018-09-13T03:05:03.958Z,4.50
2018-09-13T03:06:03.944Z,4.50
2018-09-13T03:07:03.931Z,4.30
2018-09-13T03:08:03.950Z,4.40
2018-09-13T03:09:03.914Z,4.30
2018-09-13T03:10:03.897Z,4.20
2018-09-13T03:11:03.889Z,4.30
2018-09-13T03:12:03.877Z,4.30
2018-09-13T03:13:03.876Z,4.10
2018-09-13T03:14:03.877Z,4.10
2018-09-13T03:15:03.842Z,4.10
2018-09-13T03:16:03.840Z,4.10
2018-09-13T03:17:03.820Z,4.60
2018-09-13T03:18:03.812Z,4.40
2018-09-13T03:19:03.841Z,4.40
2018-09-13T03:20:03.787Z,3.90
2018-09-13T03:21:03.787Z,4.20
2018-09-13T03:22:03.765Z,4.30
2018-09-13T03:23:03.755Z,4.20
2018-09-13T03:24:03.758Z,4.00
2018-09-13T03:25:03.732Z,4.00
2018-09-13T03:26:03.722Z,4.00
2018-09-13T03:27:03.712Z,3.80
2018-09-13T03:28:03.705Z,3.80
2018-09-13T03:29:03.708Z,4.50
2018-09-13T03:30:03.679Z,4.40
2018-09-13T03:31:03.679Z,4.40
2018-09-13T03:32:03.670Z,4.30
2018-09-13T03:33:03.648Z,4.00
2018-09-13T03:34:03.654Z,4.00
2018-09-13T03:35:03.621Z,4.10
2018-09-13T03:36:03.611Z,4.20
2018-09-13T03:37:03.598Z,4.20
2018-09-13T03:38:03.597Z,4.00
2018-09-13T03:39:03.594Z,4.00
2018-09-13T03:40:03.570Z,4.20
2018-09-13T03:41:03.559Z,3.80
2018-09-13T03:42:03.732Z,4.10
2018-09-13T03:43:03.537Z,3.90
2018-09-13T03:44:03.537Z,4.00
2018-09-13T03:45:03.532Z,3.80
2018-09-13T03:46:03.501Z,4.10
2018-09-13T03:47:03.491Z,4.00
2018-09-13T03:48:03.481Z,4.10
2018-09-13T03:49:03.481Z,3.90
2018-09-13T03:50:03.462Z,3.90
2018-09-13T03:51:03.470Z,4.40
2018-09-13T03:52:03.434Z,4.00
2018-09-13T03:53:03.424Z,4.00
2018-09-13T03:54:03.431Z,3.90
2018-09-13T03:55:03.403Z,4.00
2018-09-13T03:56:03.396Z,4.10
2018-09-13T03:57:03.398Z,3.90
2018-09-13T03:58:03.367Z,4.20
2018-09-13T03:59:03.373Z,3.80
2018-09-13T04:00:03.349Z,4.20
2018-09-13T04:01:03.346Z,3.80
2018-09-13T04:02:03.327Z,4.10
2018-09-13T04:03:03.315Z,4.00
2018-09-13T04:04:03.315Z,3.80
2018-09-13T04:05:03.306Z,4.10
2018-09-13T04:06:03.283Z,3.90
2018-09-13T04:07:03.269Z,3.60
2018-09-13T04:08:03.257Z,3.80
2018-09-13T04:09:03.293Z,4.10
2018-09-13T04:10:03.235Z,3.90
2018-09-13T04:11:03.224Z,4.00
2018-09-13T04:12:03.225Z,4.00
2018-09-13T04:13:03.215Z,4.00
2018-09-13T04:14:03.208Z,4.00
2018-09-13T04:15:03.185Z,3.90
2018-09-13T04:16:03.167Z,4.10
2018-09-13T04:17:03.166Z,4.30
2018-09-13T04:18:03.166Z,4.00
2018-09-13T04:19:03.152Z,4.50
2018-09-13T04:20:03.149Z,4.50
2018-09-13T04:21:03.119Z,5.50
2018-09-13T04:22:03.102Z,4.90
2018-09-13T04:23:03.091Z,5.50
2018-09-13T04:24:03.122Z,5.10
2018-09-13T04:25:03.075Z,5.40
2018-09-13T04:26:03.126Z,5.30
2018-09-13T04:27:03.099Z,5.30
2018-09-13T04:28:03.041Z,5.20
2018-09-13T04:29:03.045Z,5.30
2018-09-13T04:30:03.038Z,5.20
2018-09-13T04:31:03.010Z,5.00
2018-09-13T04:32:03.051Z,5.50
2018-09-13T04:33:02.983Z,5.70
2018-09-13T04:34:02.986Z,5.50
2018-09-13T04:35:02.961Z,5.40
2018-09-13T04:36:03.064Z,5.60
2018-09-13T04:37:02.940Z,5.70
2018-09-13T04:38:02.927Z,5.90
2018-09-13T04:39:02.932Z,5.50
2018-09-13T04:40:02.935Z,5.20
2018-09-13T04:41:02.891Z,5.50
2018-09-13T04:42:02.888Z,5.20
2018-09-13T04:43:02.872Z,5.30
2018-09-13T04:44:02.879Z,5.50
2018-09-13T04:45:02.858Z,5.10
2018-09-13T04:46:02.835Z,5.30
2018-09-13T04:47:02.828Z,5.30
2018-09-13T04:48:02.822Z,5.80
2018-09-13T04:49:02.828Z,5.70
2018-09-13T04:50:02.796Z,5.80
2018-09-13T04:51:02.796Z,6.10
2018-09-13T04:52:02.770Z,6.20
2018-09-13T04:53:02.760Z,6.00
2018-09-13T04:54:02.765Z,6.40
2018-09-13T04:55:02.754Z,6.50
2018-09-13T04:56:02.726Z,6.10
2018-09-13T04:57:02.721Z,6.20
2018-09-13T04:58:02.701Z,6.30
2018-09-13T04:59:02.691Z,6.20
2018-09-13T05:00:02.702Z,5.90
2018-09-13T05:01:02.669Z,6.40
2018-09-13T05:02:02.663Z,6.10
2018-09-13T05:03:02.658Z,6.10
2018-09-13T05:04:02.642Z,6.00
2018-09-13T05:05:02.648Z,5.80
2018-09-13T05:06:02.619Z,5.90
2018-09-13T05:07:02.602Z,6.30
2018-09-13T05:08:02.593Z,6.10
2018-09-13T05:09:02.596Z,6.40
2018-09-13T05:10:02.589Z,5.90
2018-09-13T05:11:02.558Z,6.50
2018-09-13T05:12:02.554Z,6.40
2018-09-13T05:13:02.537Z,6.10
2018-09-13T05:14:02.526Z,6.10
2018-09-13T05:15:02.545Z,6.10
2018-09-13T05:16:02.504Z,6.10
2018-09-13T05:17:02.494Z,5.90
2018-09-13T05:18:02.481Z,6.20
2018-09-13T05:19:02.472Z,5.90
2018-09-13T05:20:02.475Z,6.30
2018-09-13T05:21:02.458Z,5.90
2018-09-13T05:22:02.435Z,6.10
2018-09-13T05:23:02.424Z,6.30
2018-09-13T05:24:02.417Z,6.20
2018-09-13T05:25:02.418Z,6.30
2018-09-13T05:26:02.397Z,6.10
2018-09-13T05:27:02.387Z,5.70
2018-09-13T05:28:02.376Z,6.20
2018-09-13T05:29:02.359Z,6.20
2018-09-13T05:30:02.372Z,6.00
2018-09-13T05:31:02.340Z,6.20
2018-09-13T05:32:02.325Z,6.30
2018-09-13T05:33:02.327Z,6.30
2018-09-13T05:34:02.304Z,6.40
2018-09-13T05:35:02.307Z,6.20
2018-09-13T05:36:02.288Z,6.30
2018-09-13T05:37:02.273Z,6.60
2018-09-13T05:38:02.263Z,6.20
2018-09-13T05:39:02.261Z,5.80
2018-09-13T05:40:02.253Z,5.80
2018-09-13T05:41:02.230Z,6.40
2018-09-13T05:42:02.220Z,6.10
2018-09-13T05:43:02.207Z,6.30
2018-09-13T05:44:02.199Z,6.20
2018-09-13T05:45:02.197Z,6.00
2018-09-13T05:46:02.170Z,6.20
2018-09-13T05:47:02.162Z,6.10
2018-09-13T05:48:02.147Z,6.40
2018-09-13T05:49:02.138Z,6.40
2018-09-13T05:50:02.158Z,6.40
2018-09-13T05:51:02.135Z,6.10
2018-09-13T05:52:02.105Z,5.90
2018-09-13T05:53:02.117Z,6.40
2018-09-13T05:54:02.082Z,5.90
2018-09-13T05:55:02.091Z,6.20
2018-09-13T05:56:02.071Z,6.70
2018-09-13T05:57:02.049Z,6.60
2018-09-13T05:58:02.038Z,6.40
2018-09-13T05:59:02.031Z,6.80
2018-09-13T06:00:02.032Z,6.30
2018-09-13T06:01:02.005Z,6.10
2018-09-13T06:02:02.002Z,6.10
2018-09-13T06:03:01.987Z,5.90
2018-09-13T06:04:01.976Z,6.20
2018-09-13T06:05:02.006Z,6.00
2018-09-13T06:06:01.949Z,6.40
2018-09-13T06:07:01.939Z,6.20
2018-09-13T06:08:01.961Z,6.10
2018-09-13T06:09:01.918Z,6.50
2018-09-13T06:10:01.904Z,5.90
2018-09-13T06:11:01.912Z,6.50
2018-09-13T06:12:01.882Z,6.50
2018-09-13T06:13:01.875Z,6.00
2018-09-13T06:14:01.868Z,6.40
2018-09-13T06:15:01.849Z,6.90
2018-09-13T06:16:01.856Z,6.70
2018-09-13T06:17:01.832Z,6.40
2018-09-13T06:18:01.821Z,6.80
2018-09-13T06:19:01.805Z,6.80
2018-09-13T06:20:01.808Z,6.90
2018-09-13T06:21:01.800Z,6.30
2018-09-13T06:22:01.773Z,6.30
2018-09-13T06:23:01.764Z,6.10
2018-09-13T06:24:01.750Z,5.80
2018-09-13T06:25:01.741Z,6.20
2018-09-13T06:26:01.750Z,6.10
2018-09-13T06:27:01.717Z,6.10
2018-09-13T06:28:01.711Z,6.20
2018-09-13T06:29:01.712Z,6.20
2018-09-13T06:30:01.683Z,6.00
2018-09-13T06:31:01.688Z,6.50
2018-09-13T06:32:01.668Z,6.50
2018-09-13T06:33:01.651Z,5.90
2018-09-13T06:34:01.640Z,6.30
2018-09-13T06:35:01.629Z,5.90
2018-09-13T06:36:01.633Z,6.00
2018-09-13T06:37:01.616Z,6.10
2018-09-13T06:38:01.604Z,5.80
2018-09-13T06:39:01.594Z,6.10
2018-09-13T06:40:01.577Z,5.90
2018-09-13T06:41:01.578Z,5.70
2018-09-13T06:42:01.552Z,5.50
2018-09-13T06:43:01.540Z,5.90
2018-09-13T06:44:01.538Z,6.00
2018-09-13T06:45:01.518Z,5.70
2018-09-13T06:46:01.523Z,5.80
2018-09-13T06:47:01.496Z,6.20
2018-09-13T06:48:01.487Z,5.80
2018-09-13T06:49:01.475Z,5.90
2018-09-13T06:50:01.478Z,6.00
2018-09-13T06:51:01.485Z,6.20
2018-09-13T06:52:01.445Z,6.30
2018-09-13T06:53:01.432Z,6.50
2018-09-13T06:54:01.438Z,7.00
2018-09-13T06:55:01.409Z,5.90
2018-09-13T06:56:01.422Z,6.10
2018-09-13T06:57:01.390Z,6.10
2018-09-13T06:58:01.375Z,6.90
2018-09-13T06:59:01.368Z,7.10
2018-09-13T07:00:01.352Z,7.30
2018-09-13T07:01:01.357Z,7.70
2018-09-13T07:02:01.338Z,8.50
2018-09-13T07:03:01.361Z,7.80
2018-09-13T07:04:01.318Z,8.90
2018-09-13T07:05:01.312Z,7.80
2018-09-13T07:06:01.302Z,8.30
2018-09-13T07:07:01.280Z,8.90
2018-09-13T07:08:01.276Z,8.70
2018-09-13T07:09:01.297Z,8.80
2018-09-13T07:10:01.245Z,8.50
2018-09-13T07:11:01.244Z,7.40
2018-09-13T07:12:01.218Z,6.80
2018-09-13T07:13:01.208Z,7.00
2018-09-13T07:14:01.211Z,6.40
2018-09-13T07:15:01.195Z,6.90
2018-09-13T07:16:01.188Z,6.70
2018-09-13T07:17:01.168Z,6.40
2018-09-13T07:18:01.152Z,6.20
2018-09-13T07:19:01.145Z,6.60
2018-09-13T07:20:01.144Z,5.90
2018-09-13T07:21:01.135Z,6.70
2018-09-13T07:22:01.112Z,6.10
2018-09-13T07:23:01.101Z,5.40
2018-09-13T07:24:01.090Z,6.10
2018-09-13T07:25:01.076Z,6.00
2018-09-13T07:26:01.098Z,6.10
2018-09-13T07:27:01.053Z,6.20
2018-09-13T07:28:01.066Z,6.20
2018-09-13T07:29:01.036Z,5.80
2018-09-13T07:30:01.023Z,6.10
2018-09-13T07:31:01.055Z,5.60
2018-09-13T07:32:01.007Z,5.90
2018-09-13T07:33:00.993Z,6.60
2018-09-13T07:34:00.978Z,6.10
2018-09-13T07:35:00.964Z,6.20
2018-09-13T07:36:00.971Z,6.10
2018-09-13T07:37:00.943Z,6.40
2018-09-13T07:38:00.936Z,6.60
2018-09-13T07:39:00.921Z,6.50
2018-09-13T07:40:00.912Z,6.30
2018-09-13T07:41:00.902Z,6.10
2018-09-13T07:42:00.901Z,6.40
2018-09-13T07:43:00.877Z,6.30
2018-09-13T07:44:00.873Z,6.50
2018-09-13T07:45:00.853Z,6.40
2018-09-13T07:46:00.850Z,6.40
2018-09-13T07:47:00.849Z,7.40
2018-09-13T07:48:00.824Z,6.00
2018-09-13T07:49:00.871Z,6.50
2018-09-13T07:50:00.898Z,6.00
2018-09-13T07:51:00.789Z,5.90
2018-09-13T07:52:00.793Z,6.10
2018-09-13T07:53:00.765Z,6.00
2018-09-13T07:54:00.758Z,6.60
2018-09-13T07:55:00.743Z,6.20
2018-09-13T07:56:00.740Z,6.30
2018-09-13T07:57:00.735Z,6.10
2018-09-13T07:58:00.720Z,5.70
2018-09-13T07:59:00.698Z,6.80
2018-09-13T08:00:00.688Z,6.20
2018-09-13T08:01:00.687Z,5.80
2018-09-13T08:02:00.690Z,6.60
2018-09-13T08:03:00.654Z,7.40
2018-09-13T08:04:00.641Z,6.80
2018-09-13T08:05:00.725Z,6.70
2018-09-13T08:06:00.621Z,7.80
2018-09-13T08:07:00.629Z,7.80
2018-09-13T08:08:00.611Z,7.60
2018-09-13T08:09:00.588Z,6.90
2018-09-13T08:10:00.581Z,6.90
2018-09-13T08:11:00.565Z,6.80
2018-09-13T08:12:00.654Z,6.70
2018-09-13T08:13:00.543Z,6.30
2018-09-13T08:14:00.542Z,7.20
2018-09-13T08:15:00.529Z,7.20
2018-09-13T08:16:00.601Z,6.80
2018-09-13T08:17:00.515Z,7.30
2018-09-13T08:18:00.487Z,6.50
2018-09-13T08:19:00.481Z,6.70
2018-09-13T08:20:00.472Z,6.40
2018-09-13T08:21:00.457Z,5.80
2018-09-13T08:22:00.492Z,5.70
2018-09-13T08:23:00.433Z,6.60
2018-09-13T08:24:00.447Z,6.30
2018-09-13T08:25:00.411Z,5.70
2018-09-13T08:26:00.407Z,5.50
2018-09-13T08:27:00.455Z,6.20
2018-09-13T08:28:00.382Z,6.30
2018-09-13T08:29:00.366Z,6.00
2018-09-13T08:30:00.355Z,6.10
2018-09-13T08:31:00.343Z,5.70
2018-09-13T08:32:00.369Z,5.70
2018-09-13T08:33:00.328Z,6.20
2018-09-13T08:34:00.315Z,6.00
2018-09-13T08:35:00.357Z,6.10
2018-09-13T08:36:00.288Z,6.10
2018-09-13T08:37:00.358Z,5.70
2018-09-13T08:38:00.280Z,5.50
2018-09-13T08:39:00.260Z,6.10
2018-09-13T08:40:00.472Z,6.60
2018-09-13T08:41:00.232Z,6.50
2018-09-13T08:42:00.243Z,6.50
2018-09-13T08:43:00.258Z,6.30
2018-09-13T08:44:00.213Z,6.00
2018-09-13T08:45:00.195Z,6.20
2018-09-13T08:46:00.180Z,5.80
2018-09-13T08:47:00.186Z,5.70
2018-09-13T08:48:00.156Z,6.00
2018-09-13T08:49:00.146Z,6.20
2018-09-13T08:50:00.151Z,6.00
2018-09-13T08:51:00.122Z,6.00
2018-09-13T08:52:00.183Z,5.90
2018-09-13T08:53:00.106Z,6.20
2018-09-13T08:54:00.094Z,5.90
2018-09-13T08:55:00.134Z,6.10
2018-09-13T08:56:00.077Z,5.80
2018-09-13T08:57:00.077Z,5.70
2018-09-13T08:58:00.048Z,6.00
2018-09-13T08:59:00.035Z,6.00
2018-09-13T09:00:00.050Z,6.00
2018-09-13T09:01:00.014Z,6.40
2018-09-13T09:02:00.028Z,6.50
2018-09-13T09:02:59.990Z,6.30
2018-09-13T09:03:59.981Z,6.00
2018-09-13T09:04:59.969Z,6.00
2018-09-13T09:05:59.960Z,5.90
2018-09-13T09:06:59.978Z,5.60
2018-09-13T09:07:59.946Z,6.40
2018-09-13T09:08:59.924Z,5.90
2018-09-13T09:09:59.913Z,6.10
2018-09-13T09:10:59.903Z,5.80
2018-09-13T09:11:59.954Z,6.20
2018-09-13T09:12:59.915Z,6.30
2018-09-13T09:13:59.878Z,6.20
2018-09-13T09:14:59.860Z,6.00
2018-09-13T09:15:59.852Z,5.80
2018-09-13T09:16:59.837Z,6.20
2018-09-13T09:17:59.841Z,5.40
2018-09-13T09:18:59.816Z,5.60
2018-09-13T09:19:59.813Z,5.50
2018-09-13T09:20:59.798Z,5.60
2018-09-13T09:21:59.786Z,5.30
2018-09-13T09:22:59.784Z,5.70
2018-09-13T09:23:59.827Z,5.50
2018-09-13T09:24:59.753Z,5.70
2018-09-13T09:25:59.743Z,5.50
2018-09-13T09:26:59.727Z,5.70
2018-09-13T09:27:59.737Z,5.50
2018-09-13T09:28:59.765Z,5.20
2018-09-13T09:29:59.700Z,5.30
2018-09-13T09:30:59.682Z,5.50
2018-09-13T09:31:59.681Z,5.40
2018-09-13T09:32:59.680Z,6.00
2018-09-13T09:33:59.650Z,5.80
2018-09-13T09:34:59.658Z,5.60
2018-09-13T09:35:59.644Z,5.20
2018-09-13T09:36:59.617Z,5.40
2018-09-13T09:37:59.631Z,5.60
2018-09-13T09:38:59.597Z,5.10
2018-09-13T09:39:59.609Z,5.20
2018-09-13T09:40:59.572Z,5.50
2018-09-13T09:41:59.561Z,5.00
2018-09-13T09:42:59.567Z,5.30
2018-09-13T09:43:59.547Z,5.10
2018-09-13T09:44:59.528Z,5.20
2018-09-13T09:45:59.516Z,4.80
2018-09-13T09:46:59.506Z,5.00
2018-09-13T09:47:59.524Z,5.10
2018-09-13T09:48:59.483Z,4.90
2018-09-13T09:49:59.483Z,5.10
2018-09-13T09:50:59.463Z,4.80
2018-09-13T09:51:59.522Z,4.90
2018-09-13T09:52:59.458Z,4.60
2018-09-13T09:53:59.431Z,4.50
2018-09-13T09:54:59.418Z,4.40
2018-09-13T09:55:59.463Z,4.60
2018-09-13T09:56:59.394Z,4.50
2018-09-13T09:57:59.461Z,4.80
2018-09-13T09:58:59.378Z,4.70
2018-09-13T09:59:59.363Z,4.60
2018-09-13T10:00:59.355Z,4.40
2018-09-13T10:01:59.344Z,4.70
2018-09-13T10:02:59.351Z,4.20
2018-09-13T10:03:59.318Z,4.30
2018-09-13T10:04:59.305Z,4.10
2018-09-13T10:05:59.295Z,4.40
2018-09-13T10:06:59.289Z,4.20
2018-09-13T10:07:59.305Z,4.50
2018-09-13T10:08:59.280Z,4.20
2018-09-13T10:09:59.249Z,4.10
2018-09-13T10:10:59.240Z,4.10
2018-09-13T10:11:59.276Z,4.40
2018-09-13T10:12:59.233Z,4.30
2018-09-13T10:13:59.212Z,4.40
2018-09-13T10:14:59.200Z,4.40
2018-09-13T10:15:59.211Z,4.10
2018-09-13T10:16:59.188Z,4.10
2018-09-13T10:17:59.178Z,4.10
2018-09-13T10:18:59.160Z,4.10
2018-09-13T10:19:59.139Z,4.00
2018-09-13T10:20:59.129Z,4.20
2018-09-13T10:21:59.117Z,4.10
2018-09-13T10:22:59.209Z,4.00
2018-09-13T10:23:59.178Z,4.50
2018-09-13T10:24:59.091Z,4.00
2018-09-13T10:25:59.077Z,4.00
2018-09-13T10:26:59.095Z,4.00
2018-09-13T10:27:59.051Z,4.70
2018-09-13T10:28:59.054Z,4.20
2018-09-13T10:29:59.032Z,4.00
2018-09-13T10:30:59.024Z,4.30
2018-09-13T10:31:59.011Z,4.40
2018-09-13T10:32:58.997Z,3.70
2018-09-13T10:33:59.000Z,4.30
2018-09-13T10:34:58.998Z,3.80
2018-09-13T10:35:58.973Z,3.60
2018-09-13T10:36:58.960Z,3.90
2018-09-13T10:37:58.940Z,3.60
2018-09-13T10:38:58.950Z,4.00
2018-09-13T10:39:58.918Z,3.90
2018-09-13T10:40:58.914Z,3.70
2018-09-13T10:41:58.900Z,3.50
2018-09-13T10:42:58.892Z,3.90
2018-09-13T10:43:58.893Z,3.60
2018-09-13T10:44:58.862Z,4.00
2018-09-13T10:45:58.855Z,3.90
2018-09-13T10:46:58.840Z,3.80
2018-09-13T10:47:58.868Z,3.90
2018-09-13T10:48:58.841Z,3.60
2018-09-13T10:49:58.807Z,3.70
2018-09-13T10:50:58.803Z,3.70
2018-09-13T10:51:58.784Z,3.80
2018-09-13T10:52:58.774Z,3.40
2018-09-13T10:53:58.792Z,3.90
2018-09-13T10:54:58.751Z,3.80
2018-09-13T10:55:58.741Z,3.90
2018-09-13T10:56:58.728Z,3.60
2018-09-13T10:57:58.736Z,3.70
2018-09-13T10:58:58.779Z,3.30
2018-09-13T10:59:58.697Z,3.60
2018-09-13T11:00:58.703Z,3.50
2018-09-13T11:01:58.706Z,3.20
2018-09-13T11:02:58.666Z,3.80
2018-09-13T11:03:58.778Z,3.60
2018-09-13T11:04:58.681Z,3.50
2018-09-13T11:05:58.639Z,3.30
2018-09-13T11:06:58.620Z,3.50
2018-09-13T11:07:58.630Z,3.10
2018-09-13T11:08:58.599Z,3.40
2018-09-13T11:09:58.602Z,3.30
2018-09-13T11:10:58.745Z,3.40
2018-09-13T11:11:58.565Z,3.00
2018-09-13T11:12:58.557Z,3.30
2018-09-13T11:13:58.548Z,3.20
2018-09-13T11:14:58.552Z,3.10
2018-09-13T11:15:58.529Z,3.10
2018-09-13T11:16:58.517Z,3.10
2018-09-13T11:17:58.501Z,3.10
2018-09-13T11:18:58.488Z,3.50
2018-09-13T11:19:58.678Z,3.60
2018-09-13T11:20:58.465Z,3.00
2018-09-13T11:21:58.464Z,3.20
2018-09-13T11:22:58.443Z,3.50
2018-09-13T11:23:58.433Z,3.80
2018-09-13T11:24:58.436Z,3.40
2018-09-13T11:25:58.411Z,3.30
2018-09-13T11:26:58.422Z,3.20
2018-09-13T11:27:58.394Z,3.50
2018-09-13T11:28:58.382Z,3.50
2018-09-13T11:29:58.405Z,3.20
2018-09-13T11:30:58.404Z,3.30
2018-09-13T11:31:58.347Z,3.40
2018-09-13T11:32:58.342Z,3.50
2018-09-13T11:33:58.339Z,3.20
2018-09-13T11:34:58.365Z,3.50
2018-09-13T11:35:58.315Z,3.30
2018-09-13T11:36:58.314Z,3.30
2018-09-13T11:37:58.300Z,3.10
2018-09-13T11:38:58.283Z,3.40
2018-09-13T11:39:58.327Z,3.20
2018-09-13T11:40:58.513Z,2.80
2018-09-13T11:41:58.491Z,3.10
2018-09-13T11:42:58.245Z,2.90
2018-09-13T11:43:58.212Z,3.20
2018-09-13T11:44:58.216Z,3.30
2018-09-13T11:45:58.190Z,3.00
2018-09-13T11:46:58.308Z,3.30
2018-09-13T11:47:58.168Z,2.90
2018-09-13T11:48:58.165Z,3.20
2018-09-13T11:49:58.166Z,3.00
2018-09-13T11:50:58.135Z,3.10
2018-09-13T11:51:58.134Z,3.00
2018-09-13T11:52:58.117Z,3.40
2018-09-13T11:53:58.168Z,3.20
2018-09-13T11:54:58.104Z,3.00
2018-09-13T11:55:58.730Z,3.30
2018-09-13T11:56:58.071Z,3.00
2018-09-13T11:57:58.058Z,3.20
2018-09-13T11:58:58.055Z,3.40
2018-09-13T11:59:58.051Z,3.10
2018-09-13T12:00:58.646Z,3.20
2018-09-13T12:01:58.096Z,3.00
2018-09-13T12:02:58.002Z,3.30
2018-09-13T12:03:58.020Z,3.00
2018-09-13T12:04:57.995Z,3.10
2018-09-13T12:05:57.971Z,3.10
2018-09-13T12:06:57.968Z,2.90
2018-09-13T12:07:58.273Z,3.00
2018-09-13T12:08:57.936Z,3.20
2018-09-13T12:09:57.941Z,3.10
2018-09-13T12:10:57.915Z,3.10
2018-09-13T12:11:58.003Z,3.10
2018-09-13T12:12:57.914Z,3.10
2018-09-13T12:13:57.881Z,3.10
2018-09-13T12:14:57.888Z,3.00
2018-09-13T12:15:57.864Z,3.20
2018-09-13T12:16:57.850Z,3.10
2018-09-13T12:17:57.915Z,3.20
2018-09-13T12:18:57.839Z,3.20
2018-09-13T12:19:57.831Z,3.40
2018-09-13T12:20:57.806Z,2.90
2018-09-13T12:21:57.794Z,3.10
2018-09-13T12:22:57.781Z,3.00
2018-09-13T12:23:57.776Z,3.10
2018-09-13T12:24:57.778Z,3.10
2018-09-13T12:25:57.763Z,3.30
2018-09-13T12:26:58.053Z,2.90
2018-09-13T12:27:57.728Z,3.20
2018-09-13T12:28:57.738Z,3.10
2018-09-13T12:29:57.717Z,2.90
2018-09-13T12:30:57.848Z,3.10
2018-09-13T12:31:57.685Z,3.30
2018-09-13T12:32:57.674Z,3.00
2018-09-13T12:33:57.990Z,3.00
2018-09-13T12:34:57.655Z,3.10
2018-09-13T12:35:57.709Z,2.70
2018-09-13T12:36:57.629Z,3.00
2018-09-13T12:37:57.618Z,3.20
2018-09-13T12:38:57.698Z,3.00
2018-09-13T12:39:57.598Z,2.90
2018-09-13T12:40:57.694Z,2.80
2018-09-13T12:41:57.596Z,2.90
2018-09-13T12:42:57.564Z,3.00
2018-09-13T12:43:57.589Z,2.90
2018-09-13T12:44:57.549Z,2.60
2018-09-13T12:45:57.581Z,2.90
2018-09-13T12:46:57.521Z,3.00
2018-09-13T12:47:57.510Z,2.90
2018-09-13T12:48:57.501Z,2.80
2018-09-13T12:49:57.591Z,2.90
2018-09-13T12:50:57.493Z,2.90
2018-09-13T12:51:57.475Z,3.20
2018-09-13T12:52:57.455Z,3.30
2018-09-13T12:53:57.447Z,2.90
2018-09-13T12:54:57.437Z,3.00
2018-09-13T12:55:57.597Z,3.10
2018-09-13T12:56:57.457Z,3.10
2018-09-13T12:57:57.402Z,3.40
2018-09-13T12:58:57.409Z,3.20
2018-09-13T12:59:57.383Z,3.20
2018-09-13T13:00:57.386Z,3.40
2018-09-13T13:01:57.358Z,3.00
2018-09-13T13:02:57.349Z,3.20
2018-09-13T13:03:57.338Z,2.90
2018-09-13T13:04:57.342Z,3.40
2018-09-13T13:05:57.330Z,3.10
2018-09-13T13:06:57.311Z,3.20
2018-09-13T13:07:57.293Z,2.90
2018-09-13T13:08:57.351Z,2.90
2018-09-13T13:09:57.272Z,3.00
2018-09-13T13:11:00.696Z,3.40
2018-09-13T13:11:57.381Z,3.00
2018-09-13T13:12:57.239Z,3.00
2018-09-13T13:13:57.234Z,3.20
2018-09-13T13:14:57.223Z,3.10
2018-09-13T13:15:57.269Z,2.90
2018-09-13T13:16:57.257Z,3.30
2018-09-13T13:17:57.196Z,3.30